Time;durP1;ratioP1;P1;durP2;ratioP2;P2;SDS_P1;SDS_P2;PMS_P1;PMS_P2;Temp;Humidity;BMP_temperature;BMP_pressure;BME280_temperature;BME280_humidity;BME280_pressure;Samples;Min_cycle;Max_cycle;Signal;HPM_P1;HPM_P2
2023/01/22 00:01:12;;;;;;;31.65;14.90;;;-1.70;99.90;;;-3.00;100.00;97909.19;5007658;28;20133;-39
2023/01/22 00:03:39;;;;;;;30.08;14.30;;;-1.80;99.90;;;-2.98;100.00;97910.13;5038871;28;20585;-38
2023/01/22 00:06:05;;;;;;;30.42;15.75;;;-1.80;99.90;;;-2.98;100.00;97909.22;5036457;28;20040;-39
2023/01/22 00:08:31;;;;;;;28.45;14.98;;;-1.70;99.90;;;-3.04;100.00;97886.72;5033253;28;20056;-39
2023/01/22 00:10:57;;;;;;;29.65;14.63;;;-1.70;99.90;;;-2.99;100.00;97895.47;5031099;28;20102;-39
2023/01/22 00:13:24;;;;;;;27.13;13.70;;;-1.80;99.90;;;-3.00;100.00;97896.28;5038166;28;20032;-39
2023/01/22 00:15:50;;;;;;;33.67;14.85;;;-1.80;99.90;;;-3.21;100.00;97860.53;5044760;28;20062;-39
2023/01/22 00:18:17;;;;;;;31.17;14.35;;;-1.70;99.90;;;-2.93;100.00;97892.16;5043489;28;20169;-39
2023/01/22 00:20:47;;;;;;;29.58;14.93;;;-1.70;99.90;;;-2.95;100.00;97891.25;5062036;22;20641;-51
2023/01/22 00:23:13;;;;;;;30.80;14.98;;;-1.70;99.90;;;-2.97;100.00;97880.88;5044685;28;22516;-52
2023/01/22 00:25:39;;;;;;;26.17;13.52;;;-1.70;99.90;;;-2.85;100.00;97887.16;5037486;28;20036;-51
2023/01/22 00:28:06;;;;;;;27.00;13.95;;;-1.70;99.90;;;-2.94;100.00;97886.13;5045670;28;20032;-50
2023/01/22 00:30:31;;;;;;;30.15;14.77;;;-1.70;99.90;;;-2.83;100.00;97888.97;5029520;28;20512;-50
2023/01/22 00:32:57;;;;;;;28.60;14.77;;;-1.70;99.90;;;-2.85;100.00;97887.16;5023721;28;20061;-50
2023/01/22 00:35:23;;;;;;;28.88;13.82;;;-1.60;99.90;;;-2.90;100.00;97874.16;5026263;28;20053;-49
2023/01/22 00:37:49;;;;;;;34.17;14.48;;;-1.70;99.90;;;-2.92;100.00;97874.13;5023781;28;20071;-51
2023/01/22 00:40:16;;;;;;;28.05;15.15;;;-1.70;99.90;;;-2.88;100.00;97875.06;5024027;28;20453;-49
2023/01/22 00:42:41;;;;;;;30.33;13.88;;;-1.60;99.90;;;-2.86;100.00;97875.97;5023618;28;20025;-49
2023/01/22 00:45:08;;;;;;;27.00;13.30;;;-1.70;99.90;;;-2.88;100.00;97881.09;5023446;28;20098;-53
2023/01/22 00:47:34;;;;;;;24.98;13.00;;;-1.60;99.90;;;-2.85;100.00;97882.00;5029168;28;20585;-51
2023/01/22 00:50:01;;;;;;;27.60;13.63;;;-1.60;99.90;;;-2.90;100.00;97863.84;5024710;28;20040;-54
2023/01/22 00:52:27;;;;;;;30.23;13.63;;;-1.60;99.90;;;-2.89;100.00;97865.56;5026643;28;20056;-50
2023/01/22 00:54:52;;;;;;;27.30;14.00;;;-1.60;99.90;;;-2.86;100.00;97880.28;5023092;28;20120;-51
2023/01/22 00:57:20;;;;;;;29.25;14.23;;;-1.60;99.90;;;-2.83;100.00;97877.78;5027768;28;20049;-53
2023/01/22 00:59:50;;;;;;;28.02;13.60;;;-1.60;99.90;;;-2.86;100.00;97875.09;5031132;28;20036;-49
2023/01/22 01:02:17;;;;;;;28.92;14.32;;;-1.60;99.90;;;-2.85;100.00;97879.41;5029943;28;20300;-49
2023/01/22 01:04:42;;;;;;;28.52;14.10;;;-1.60;99.90;;;-2.85;100.00;97872.56;5026488;28;20033;-50
2023/01/22 01:07:08;;;;;;;24.73;13.07;;;-1.60;99.90;;;-2.83;100.00;97876.06;5027464;28;20047;-53
2023/01/22 01:09:34;;;;;;;27.25;13.82;;;-1.60;99.90;;;-2.83;100.00;97876.06;5023389;28;20358;-50
2023/01/22 01:12:00;;;;;;;28.33;13.55;;;-1.60;99.90;;;-2.80;100.00;97882.97;5026381;28;20041;-49
2023/01/22 01:14:26;;;;;;;24.48;12.45;;;-1.60;99.90;;;-2.77;100.00;97880.47;5025405;28;20380;-50
2023/01/22 01:16:52;;;;;;;25.02;12.70;;;-1.60;99.90;;;-2.76;100.00;97877.94;5023201;28;21494;-51
2023/01/22 01:19:19;;;;;;;25.80;12.85;;;-1.60;99.90;;;-2.74;100.00;97884.00;5025572;28;20037;-49
2023/01/22 01:21:45;;;;;;;24.50;13.02;;;-1.50;99.90;;;-2.90;100.00;97850.94;5028848;28;20042;-51
2023/01/22 01:24:12;;;;;;;26.70;14.15;;;-1.50;99.90;;;-2.73;100.00;97879.72;5025976;28;20064;-54
2023/01/22 01:26:39;;;;;;;21.27;12.57;;;-1.60;99.90;;;-2.74;100.00;97885.72;5028943;28;20033;-53
2023/01/22 01:29:08;;;;;;;27.85;13.90;;;-1.50;99.90;;;-2.75;100.00;97883.97;5021658;28;20033;-51
2023/01/22 01:31:35;;;;;;;24.58;12.35;;;-1.50;99.90;;;-2.70;100.00;97877.22;5026873;28;20187;-51
2023/01/22 01:34:02;;;;;;;24.55;12.88;;;-1.50;99.90;;;-2.73;100.00;97871.97;5023971;28;20072;-50
2023/01/22 01:36:28;;;;;;;22.38;12.60;;;-1.50;99.90;;;-2.69;100.00;97871.22;5024478;28;20135;-49
2023/01/22 01:38:54;;;;;;;23.55;12.88;;;-1.50;99.90;;;-2.71;100.00;97878.03;5020136;28;20590;-50
2023/01/22 01:41:24;;;;;;;24.63;12.18;;;-1.50;99.90;;;-2.72;100.00;97879.75;5021910;28;20029;-51
2023/01/22 01:44:13;;;;;;;25.13;12.88;;;-1.50;99.90;;;-2.70;100.00;97878.06;5021808;28;20029;-54
2023/01/22 01:47:04;;;;;;;24.55;12.90;;;-1.50;99.90;;;-2.72;100.00;97873.72;5021752;28;20033;-51
2023/01/22 01:49:37;;;;;;;24.98;12.77;;;-1.50;99.90;;;-2.67;100.00;97876.41;5026921;28;20065;-53
2023/01/22 01:52:10;;;;;;;24.90;12.48;;;-1.50;99.90;;;-2.66;100.00;97868.69;5023966;28;20040;-53
2023/01/22 01:54:38;;;;;;;22.08;12.75;;;-1.50;99.90;;;-2.66;100.00;97873.84;5025841;28;20143;-51
2023/01/22 01:57:21;;;;;;;24.25;12.27;;;-1.50;99.90;;;-2.67;100.00;97874.72;5012077;28;20040;-52
2023/01/22 01:59:48;;;;;;;24.85;12.18;;;-1.50;99.90;;;-2.66;100.00;97871.28;5026752;28;20436;-50
2023/01/22 02:02:14;;;;;;;26.58;14.00;;;-1.40;99.90;;;-2.67;100.00;97868.66;5022446;28;20405;-51
2023/01/22 02:04:40;;;;;;;22.95;13.05;;;-1.50;99.90;;;-2.66;100.00;97873.00;5023947;28;20086;-52
2023/01/22 02:07:06;;;;;;;24.33;12.52;;;-1.50;99.90;;;-2.67;100.00;97872.13;5024684;28;20488;-54
2023/01/22 02:09:32;;;;;;;25.73;13.48;;;-1.50;99.90;;;-2.65;100.00;97878.19;5025200;28;20245;-50
2023/01/22 02:11:58;;;;;;;23.80;13.68;;;-1.40;99.90;;;-2.66;100.00;97871.28;5026224;28;20485;-51
2023/01/22 02:14:31;;;;;;;26.83;13.50;;;-1.40;99.90;;;-2.65;100.00;97865.28;5006309;28;20432;-52
2023/01/22 02:17:07;;;;;;;23.55;13.18;;;-1.40;99.90;;;-2.65;100.00;97867.88;5005325;28;20106;-52
2023/01/22 02:19:33;;;;;;;27.63;13.60;;;-1.40;99.90;;;-2.64;100.00;97874.75;5007184;28;20276;-54
2023/01/22 02:22:00;;;;;;;23.92;12.73;;;-1.40;99.90;;;-2.63;100.00;97858.44;5020780;28;20462;-52
2023/01/22 02:24:30;;;;;;;23.13;11.60;;;-1.40;99.90;;;-2.53;100.00;97873.31;5024530;28;20142;-56
2023/01/22 02:26:56;;;;;;;22.13;12.35;;;-1.40;99.90;;;-2.50;100.00;97870.78;5024078;28;20040;-52
2023/01/22 02:29:21;;;;;;;24.80;13.52;;;-1.30;99.90;;;-2.50;100.00;97870.78;5022433;28;20365;-53
2023/01/22 02:31:47;;;;;;;22.60;11.65;;;-1.30;99.90;;;-2.54;100.00;97871.53;5024258;28;20411;-52
2023/01/22 02:34:13;;;;;;;23.77;12.25;;;-1.40;99.90;;;-2.48;100.00;97867.38;5026361;28;20036;-49
2023/01/22 02:36:39;;;;;;;22.88;12.05;;;-1.30;99.90;;;-2.48;100.00;97870.81;5026317;28;20091;-50
2023/01/22 02:39:06;;;;;;;25.65;12.43;;;-1.30;99.90;;;-2.47;100.00;97867.41;5024299;28;20041;-50
2023/01/22 02:41:32;;;;;;;20.98;11.63;;;-1.30;99.90;;;-2.51;100.00;97860.44;5021772;28;20033;-50
2023/01/22 02:43:57;;;;;;;22.00;12.00;;;-1.30;99.90;;;-2.51;100.00;97870.75;5018369;28;20033;-50
2023/01/22 02:46:24;;;;;;;23.27;13.00;;;-1.40;99.90;;;-2.53;100.00;97870.72;5020466;28;20037;-51
2023/01/22 02:48:50;;;;;;;24.20;12.77;;;-1.30;99.90;;;-2.52;100.00;97869.00;5019434;28;20063;-54
2023/01/22 02:51:16;;;;;;;20.65;12.00;;;-1.30;99.90;;;-2.50;100.00;97877.66;5025993;28;20388;-50
2023/01/22 02:53:42;;;;;;;22.45;12.43;;;-1.40;99.90;;;-2.51;100.00;97871.63;5023241;28;20051;-53
2023/01/22 02:56:09;;;;;;;21.73;12.43;;;-1.30;99.90;;;-2.50;100.00;97875.94;5024398;28;20166;-50
2023/01/22 02:58:35;;;;;;;24.08;12.57;;;-1.30;99.90;;;-2.61;100.00;97845.56;5022632;28;20044;-53
2023/01/22 03:01:20;;;;;;;22.73;12.95;;;-1.30;99.90;;;-2.43;100.00;97873.50;5022751;28;20037;-51
2023/01/22 03:04:09;;;;;;;18.02;11.40;;;-1.30;99.90;;;-2.35;100.00;97871.94;5021174;28;20345;-50
2023/01/22 03:06:36;;;;;;;20.25;11.73;;;-1.20;99.90;;;-2.37;100.00;97865.88;5024030;28;20124;-52
2023/01/22 03:09:03;;;;;;;17.45;10.60;;;-1.20;99.90;;;-2.47;100.00;97832.97;5020580;28;20029;-50
2023/01/22 03:11:32;;;;;;;20.38;10.95;;;-1.20;99.90;;;-2.32;100.00;97861.69;5022036;28;20094;-53
2023/01/22 03:22:14;;;;;;;18.65;10.93;;;-1.10;99.90;;;-2.16;100.00;97852.53;5012476;28;20047;-54
2023/01/22 03:24:41;;;;;;;19.58;11.82;;;-1.00;99.90;;;-2.16;100.00;97852.53;5016170;28;20451;-54
2023/01/22 03:27:07;;;;;;;21.98;11.52;;;-1.00;99.90;;;-2.23;100.00;97858.44;5021017;28;20037;-51
2023/01/22 03:29:37;;;;;;;20.85;12.00;;;-1.00;99.90;;;-2.28;100.00;97860.03;5011663;28;20033;-53
2023/01/22 03:32:04;;;;;;;20.05;11.40;;;-1.10;99.90;;;-2.35;100.00;97846.09;5017576;28;20033;-55
2023/01/22 03:34:30;;;;;;;21.17;11.77;;;-1.10;99.90;;;-2.33;100.00;97863.41;5019460;28;20090;-50
2023/01/22 03:36:56;;;;;;;20.30;12.23;;;-1.10;99.90;;;-2.34;100.00;97863.38;5015792;28;20496;-51
2023/01/22 03:39:22;;;;;;;19.67;11.93;;;-1.10;99.90;;;-2.37;100.00;97860.72;5025036;28;20037;-54
2023/01/22 03:41:47;;;;;;;23.55;13.38;;;-1.10;99.90;;;-2.37;100.00;97861.59;5022315;28;20083;-50
2023/01/22 03:44:13;;;;;;;19.35;12.10;;;-1.20;99.90;;;-2.37;100.00;97863.28;5020707;28;20140;-49
2023/01/22 03:46:39;;;;;;;20.60;11.85;;;-1.20;99.90;;;-2.38;100.00;97857.25;5019218;28;20036;-52
2023/01/22 03:49:08;;;;;;;20.65;12.13;;;-1.20;99.90;;;-2.38;100.00;97864.16;5017433;28;20725;-52
2023/01/22 03:51:35;;;;;;;20.23;12.32;;;-1.20;99.90;;;-2.37;100.00;97856.44;5021638;28;20120;-52
2023/01/22 03:54:01;;;;;;;23.98;12.30;;;-1.20;99.90;;;-2.39;100.00;97852.06;5015218;28;20358;-51
2023/01/22 03:56:27;;;;;;;21.90;12.20;;;-1.20;99.90;;;-2.37;100.00;97861.59;5016991;28;20064;-52
2023/01/22 03:58:53;;;;;;;20.02;12.00;;;-1.20;99.90;;;-2.33;100.00;97862.53;5016959;28;20416;-54
2023/01/22 04:01:26;;;;;;;19.15;11.73;;;-1.20;99.90;;;-2.32;100.00;97864.25;5020669;28;20048;-53
2023/01/22 04:03:53;;;;;;;21.27;11.93;;;-1.20;99.90;;;-2.35;100.00;97856.44;5017471;28;20029;-52
2023/01/22 04:06:21;;;;;;;20.17;11.35;;;-1.10;99.90;;;-2.22;100.00;97858.47;5019205;28;20051;-50
2023/01/22 04:08:49;;;;;;;22.08;11.27;;;-1.10;99.90;;;-2.16;100.00;97862.88;5005172;28;20040;-50
2023/01/22 04:11:17;;;;;;;22.92;12.50;;;-1.10;99.90;;;-2.20;100.00;97869.69;5019646;28;20312;-50
2023/01/22 04:13:43;;;;;;;20.33;11.95;;;-1.00;99.90;;;-2.22;100.00;97862.75;5017681;28;20364;-52
2023/01/22 04:16:11;;;;;;;20.50;12.68;;;-1.10;99.90;;;-2.24;100.00;97869.59;5015831;28;20029;-50
2023/01/22 04:18:37;;;;;;;22.65;12.43;;;-1.10;99.90;;;-2.24;100.00;97857.56;5019840;28;20033;-54
2023/01/22 04:21:04;;;;;;;22.15;12.10;;;-1.10;99.90;;;-2.17;100.00;97849.09;5022333;28;20030;-50
2023/01/22 04:23:30;;;;;;;21.88;11.73;;;-1.00;99.90;;;-2.18;100.00;97856.81;5018263;28;20131;-53
2023/01/22 04:25:56;;;;;;;22.25;12.05;;;-1.00;99.90;;;-2.13;100.00;97863.81;5020500;28;20035;-51
2023/01/22 04:28:22;;;;;;;22.08;13.65;;;-1.00;99.90;;;-2.18;100.00;97868.00;5019932;28;20553;-51
2023/01/22 04:30:51;;;;;;;24.00;13.30;;;-1.00;99.90;;;-2.18;100.00;97864.56;5019531;28;20044;-52
2023/01/22 04:33:17;;;;;;;20.23;12.32;;;-1.00;99.90;;;-2.22;100.00;97857.59;5022349;28;20029;-52
2023/01/22 04:35:43;;;;;;;23.42;13.05;;;-1.00;99.90;;;-2.11;100.00;97863.84;5023310;28;20036;-54
2023/01/22 04:38:12;;;;;;;20.38;12.00;;;-1.00;99.90;;;-2.08;100.00;97865.63;5018752;28;20162;-48
2023/01/22 04:40:38;;;;;;;21.77;12.07;;;-0.90;99.90;;;-2.13;100.00;97862.94;5021816;28;20120;-52
2023/01/22 04:43:06;;;;;;;21.33;12.82;;;-1.00;99.90;;;-2.17;100.00;97863.72;5020267;28;20036;-51
2023/01/22 04:45:32;;;;;;;23.60;13.38;;;-1.00;99.90;;;-2.24;100.00;97867.91;5021220;28;20044;-50
2023/01/22 04:47:58;;;;;;;22.83;13.10;;;-1.10;99.90;;;-2.29;100.00;97863.47;5017864;28;20307;-53
2023/01/22 04:50:28;;;;;;;22.67;12.40;;;-1.10;99.90;;;-2.24;100.00;97873.06;5019091;28;20481;-51
2023/01/22 04:52:55;;;;;;;23.08;12.38;;;-1.10;99.90;;;-2.17;100.00;97874.03;5020989;28;20036;-54
2023/01/22 04:55:23;;;;;;;23.60;11.98;;;-1.00;99.90;;;-2.13;100.00;97876.72;5025954;28;20029;-52
2023/01/22 04:57:49;;;;;;;21.77;12.60;;;-1.00;99.90;;;-2.08;100.00;97879.44;5023813;28;20048;-52
2023/01/22 05:00:16;;;;;;;22.27;12.55;;;-1.00;99.90;;;-2.04;100.00;97881.22;5018765;28;20098;-52
2023/01/22 05:02:41;;;;;;;22.42;13.20;;;-0.90;99.90;;;-2.12;100.00;97872.44;5026123;28;20532;-49
2023/01/22 05:05:09;;;;;;;24.80;13.35;;;-0.90;99.90;;;-2.17;100.00;97876.63;5023465;28;20144;-52
2023/01/22 05:07:35;;;;;;;25.38;13.55;;;-0.90;99.90;;;-2.15;100.00;97881.00;5020430;28;20064;-52
2023/01/22 05:10:00;;;;;;;25.45;12.40;;;-1.00;99.90;;;-2.17;100.00;97890.44;5023580;28;20120;-52
2023/01/22 05:12:27;;;;;;;25.42;13.70;;;-1.00;99.90;;;-2.26;100.00;97869.56;5027770;28;20582;-49
2023/01/22 05:14:52;;;;;;;21.05;12.55;;;-1.00;99.90;;;-2.10;100.00;97888.84;5022658;28;20523;-52
2023/01/22 05:17:18;;;;;;;24.40;13.25;;;-1.00;99.90;;;-2.00;100.00;97902.84;5022440;28;20032;-49
2023/01/22 05:19:44;;;;;;;21.10;12.50;;;-0.90;99.90;;;-1.95;100.00;97896.91;5020176;28;20036;-52
2023/01/22 05:22:09;;;;;;;23.10;13.10;;;-0.90;99.90;;;-1.98;100.00;97903.75;5022529;28;20123;-53
2023/01/22 05:24:35;;;;;;;24.33;13.85;;;-0.80;99.90;;;-2.06;100.00;97902.69;5024002;28;20679;-50
2023/01/22 05:27:01;;;;;;;24.58;13.60;;;-0.80;99.90;;;-2.12;100.00;97901.75;5022868;28;20186;-53
2023/01/22 05:29:27;;;;;;;24.27;12.88;;;-0.90;99.90;;;-2.12;100.00;97903.44;5021316;28;20304;-50
2023/01/22 05:31:54;;;;;;;22.75;13.25;;;-1.00;99.90;;;-2.13;100.00;97900.00;5016614;28;20032;-53
2023/01/22 05:34:20;;;;;;;23.70;13.23;;;-1.00;99.90;;;-2.10;100.00;97901.75;5021996;28;20601;-50
2023/01/22 05:36:46;;;;;;;22.95;12.48;;;-1.00;99.90;;;-2.25;100.00;97889.41;5018257;28;20056;-51
2023/01/22 05:39:14;;;;;;;23.75;13.18;;;-1.00;99.90;;;-2.15;100.00;97901.69;5023245;28;20033;-50
2023/01/22 05:41:39;;;;;;;22.88;13.52;;;-1.00;99.90;;;-2.16;100.00;97910.25;5019316;28;20115;-52
2023/01/22 05:44:05;;;;;;;26.77;14.82;;;-1.00;99.90;;;-2.21;100.00;97898.09;5019791;28;20741;-54
2023/01/22 05:46:31;;;;;;;23.85;13.40;;;-1.00;99.90;;;-2.13;100.00;97917.22;5018948;28;20073;-50
2023/01/22 05:48:58;;;;;;;29.25;14.85;;;-1.00;99.90;;;-2.06;100.00;97908.75;5003638;28;20074;-48
2023/01/22 05:51:25;;;;;;;26.05;13.82;;;-1.00;99.90;;;-2.01;100.00;97912.31;5020822;28;20028;-49
2023/01/22 05:53:51;;;;;;;21.70;12.98;;;-0.90;99.90;;;-1.97;100.00;97915.84;5022344;28;20563;-54
2023/01/22 05:56:17;;;;;;;20.25;12.40;;;-0.80;99.90;;;-1.93;100.00;97920.22;5022709;28;20052;-50
2023/01/22 05:58:44;;;;;;;22.23;11.73;;;-0.80;99.90;;;-1.90;100.00;97928.06;5026443;28;20092;-51
2023/01/22 06:01:10;;;;;;;25.10;14.23;;;-0.80;99.90;;;-1.90;100.00;97924.56;5015528;28;20029;-53
2023/01/22 06:03:35;;;;;;;22.70;12.73;;;-0.80;99.90;;;-1.87;100.00;97922.06;5016906;28;20098;-55
2023/01/22 06:06:07;;;;;;;23.13;13.02;;;-0.80;99.90;;;-1.89;100.00;97921.16;5024429;28;20560;-51
2023/01/22 06:08:33;;;;;;;24.50;13.35;;;-0.80;99.90;;;-1.96;100.00;97915.84;5002039;28;20060;-51
2023/01/22 06:11:05;;;;;;;23.85;13.95;;;-0.80;99.90;;;-1.92;100.00;97927.13;5021858;28;20046;-48
2023/01/22 06:13:31;;;;;;;23.67;13.98;;;-0.80;99.90;;;-1.94;100.00;97921.03;5024332;28;20041;-51
2023/01/22 06:15:58;;;;;;;24.67;13.68;;;-0.80;99.90;;;-1.98;100.00;97914.94;5021526;28;20068;-52
2023/01/22 06:18:24;;;;;;;22.73;13.50;;;-0.80;99.90;;;-2.02;100.00;97920.03;5020852;28;20244;-51
2023/01/22 06:20:50;;;;;;;24.88;13.55;;;-0.80;99.90;;;-1.96;100.00;97931.34;5048440;22;20101;-39
2023/01/22 06:23:17;;;;;;;25.00;13.15;;;-0.80;99.90;;;-1.95;100.00;97934.84;5042975;28;20033;-39
2023/01/22 06:25:43;;;;;;;24.48;13.45;;;-0.80;99.90;;;-1.97;100.00;97942.56;5025704;28;20127;-39
2023/01/22 06:28:09;;;;;;;26.30;14.18;;;-0.80;99.90;;;-1.99;100.00;97938.16;5044538;28;20153;-39
2023/01/22 06:30:35;;;;;;;29.10;14.38;;;-0.90;99.90;;;-2.03;100.00;97938.94;5026667;28;20142;-39
2023/01/22 06:33:01;;;;;;;26.83;15.02;;;-0.80;99.90;;;-1.98;100.00;97943.38;5025928;28;20511;-37
2023/01/22 06:35:27;;;;;;;26.05;14.48;;;-0.80;99.90;;;-1.97;100.00;97944.28;5025208;28;20518;-37
2023/01/22 06:37:52;;;;;;;26.63;14.48;;;-0.80;99.90;;;-2.00;100.00;97947.66;5022241;28;20372;-39
2023/01/22 06:40:18;;;;;;;24.33;14.15;;;-0.80;99.90;;;-2.01;100.00;97945.03;5024900;28;20229;-38
2023/01/22 06:42:44;;;;;;;26.20;14.45;;;-0.90;99.90;;;-2.06;100.00;97944.94;5020338;28;20082;-38
2023/01/22 06:45:10;;;;;;;27.70;14.13;;;-0.90;99.90;;;-1.99;100.00;97951.09;5021646;28;20048;-38
2023/01/22 06:47:36;;;;;;;26.75;14.45;;;-0.90;99.90;;;-2.02;100.00;97956.22;5022166;28;20079;-38
2023/01/22 06:50:02;;;;;;;29.08;15.88;;;-0.90;99.90;;;-2.02;100.00;97956.22;5023214;28;20769;-38
2023/01/22 06:52:27;;;;;;;25.85;14.30;;;-0.90;99.90;;;-2.04;100.00;97955.31;5021000;28;20052;-38
2023/01/22 06:54:53;;;;;;;29.83;15.10;;;-0.90;99.90;;;-2.07;100.00;97950.06;5021666;28;20043;-38
2023/01/22 06:57:19;;;;;;;29.77;15.25;;;-0.90;99.90;;;-2.00;100.00;97959.72;5019118;28;20751;-38
2023/01/22 06:59:44;;;;;;;25.17;14.77;;;-0.90;99.90;;;-1.97;100.00;97962.38;5025586;28;20567;-38
2023/01/22 07:02:17;;;;;;;27.13;14.80;;;-0.80;99.90;;;-1.95;100.00;97963.28;5023681;28;20202;-38
2023/01/22 07:04:43;;;;;;;22.40;12.27;;;-0.80;99.90;;;-1.95;100.00;97953.78;5024086;28;20045;-38
2023/01/22 07:07:09;;;;;;;23.20;13.02;;;-0.80;99.90;;;-1.88;100.00;97972.91;5023288;28;20527;-38
2023/01/22 07:09:35;;;;;;;25.95;14.40;;;-0.80;99.90;;;-1.90;100.00;97965.94;5020212;28;20042;-38
2023/01/22 07:12:01;;;;;;;25.38;14.05;;;-0.80;99.90;;;-1.89;100.00;97958.22;5025238;28;20486;-38
2023/01/22 07:14:27;;;;;;;25.50;13.40;;;-0.70;99.90;;;-1.79;100.00;97974.81;5024110;28;20460;-37
2023/01/22 07:16:54;;;;;;;26.92;13.95;;;-0.70;99.90;;;-1.83;100.00;97965.22;5020184;28;22371;-38
2023/01/22 07:19:20;;;;;;;24.48;13.45;;;-0.70;99.90;;;-1.76;100.00;97973.16;5020447;28;20037;-38
2023/01/22 07:21:45;;;;;;;23.58;13.25;;;-0.70;99.90;;;-1.77;100.00;97971.41;5024845;28;20454;-38
2023/01/22 07:24:11;;;;;;;25.10;13.35;;;-0.60;99.90;;;-1.69;100.00;97974.13;5020377;28;20122;-38
2023/01/22 07:26:40;;;;;;;23.95;12.75;;;-0.60;99.90;;;-1.70;100.00;97971.56;5025957;28;20033;-38
2023/01/22 07:29:06;;;;;;;24.08;12.65;;;-0.50;99.90;;;-1.56;100.00;97986.50;5028326;28;20135;-39
2023/01/22 07:31:32;;;;;;;23.52;13.75;;;-0.50;99.90;;;-1.54;100.00;97987.41;5024950;28;20051;-39
2023/01/22 07:33:57;;;;;;;26.23;14.00;;;-0.50;99.90;;;-1.59;100.00;97973.50;5024537;28;20033;-39
2023/01/22 07:36:23;;;;;;;24.95;14.65;;;-0.40;99.90;;;-1.75;100.00;97951.63;5025483;28;20040;-39
2023/01/22 07:38:49;;;;;;;24.20;13.95;;;-0.40;99.90;;;-1.51;100.00;97986.56;5022127;28;20112;-39
2023/01/22 07:41:15;;;;;;;22.90;13.50;;;-0.40;99.90;;;-1.49;100.00;97984.91;5031962;28;20024;-39
2023/01/22 07:43:40;;;;;;;24.38;14.07;;;-0.40;99.90;;;-1.67;100.00;97958.66;5018796;28;20122;-39
2023/01/22 07:46:07;;;;;;;25.77;13.68;;;-0.30;99.90;;;-1.46;100.00;97990.13;5007866;28;20571;-39
2023/01/22 07:48:33;;;;;;;23.27;13.57;;;-0.40;99.90;;;-1.89;100.00;97914.25;5024114;28;20021;-40
2023/01/22 07:51:01;;;;;;;24.05;13.02;;;-0.40;99.90;;;-1.55;100.00;97958.91;5030724;28;20032;-39
2023/01/22 07:53:27;;;;;;;27.13;14.05;;;-0.30;99.90;;;-1.39;100.00;97986.81;5026662;28;20053;-39
2023/01/22 07:55:53;;;;;;;23.67;13.45;;;-0.30;99.90;;;-1.31;100.00;97994.75;5019934;28;20163;-39
2023/01/22 07:58:18;;;;;;;27.95;14.80;;;-0.30;99.90;;;-1.76;100.00;97921.44;5024235;28;20033;-39
2023/01/22 08:00:44;;;;;;;25.33;14.88;;;-0.20;99.90;;;-1.46;100.00;97974.59;5020429;28;20563;-39
2023/01/22 08:03:12;;;;;;;25.30;13.40;;;-0.20;99.90;;;-1.25;100.00;98004.34;5024705;28;20157;-39
2023/01/22 08:05:39;;;;;;;24.13;13.65;;;-0.20;99.90;;;-1.21;100.00;97994.06;5025190;28;20041;-39
2023/01/22 08:08:06;;;;;;;24.45;14.00;;;-0.10;99.90;;;-1.32;100.00;97981.78;5020282;28;20037;-39
2023/01/22 08:10:32;;;;;;;23.25;13.18;;;-0.10;99.90;;;-1.17;100.00;98003.66;5026843;28;20167;-39
2023/01/22 08:12:57;;;;;;;25.90;14.02;;;-0.10;99.90;;;-1.10;100.00;98001.19;5029616;28;20041;-39
2023/01/22 08:15:23;;;;;;;22.95;13.98;;;0.00;99.90;;;-0.97;100.00;98014.38;5023956;28;20734;-39
2023/01/22 08:17:50;;;;;;;23.55;13.57;;;0.10;99.90;;;-1.01;100.00;97994.44;5028159;28;20425;-39
2023/01/22 08:20:16;;;;;;;23.67;13.45;;;0.20;99.90;;;-0.86;100.00;98012.00;5027388;28;20030;-39
2023/01/22 08:22:42;;;;;;;23.83;13.95;;;0.20;99.90;;;-0.84;100.00;98012.03;5020465;28;20034;-39
2023/01/22 08:25:09;;;;;;;24.85;13.57;;;0.20;99.90;;;-0.75;100.00;98021.66;5027337;28;20025;-39
2023/01/22 08:27:34;;;;;;;24.45;13.68;;;0.30;99.90;;;-0.83;100.00;98009.44;5029702;28;20507;-39
2023/01/22 08:30:01;;;;;;;27.80;13.52;;;0.30;99.90;;;-0.73;100.00;98033.81;5032384;28;20033;-39
2023/01/22 08:32:27;;;;;;;25.88;13.73;;;0.30;99.90;;;-0.74;100.00;98038.94;5030078;28;20037;-39
2023/01/22 08:34:53;;;;;;;25.85;13.85;;;0.30;99.90;;;-0.65;100.00;98044.28;5032052;28;20091;-39
2023/01/22 08:37:20;;;;;;;25.92;12.93;;;0.30;99.90;;;-0.84;100.00;98014.63;5031188;28;20033;-39
2023/01/22 08:39:46;;;;;;;24.85;13.07;;;0.40;99.90;;;-0.64;100.00;98043.47;5031886;28;20294;-40
2023/01/22 08:42:12;;;;;;;20.85;12.95;;;0.40;99.90;;;-0.63;100.00;98045.19;5031476;28;20044;-39
2023/01/22 08:44:37;;;;;;;25.25;13.88;;;0.40;99.90;;;-0.81;100.00;98004.28;5028507;28;20037;-39
2023/01/22 08:47:03;;;;;;;23.95;13.43;;;0.40;99.90;;;-0.54;100.00;98047.06;5026836;28;20044;-39
2023/01/22 08:49:31;;;;;;;25.10;14.05;;;0.50;99.90;;;-0.52;100.00;98045.38;5028851;28;20043;-39
2023/01/22 08:51:57;;;;;;;22.98;13.70;;;0.50;99.90;;;-0.58;100.00;98047.00;5021784;28;20033;-39
2023/01/22 08:54:23;;;;;;;23.98;13.43;;;0.50;99.90;;;-0.55;100.00;98056.56;5027272;28;20901;-39
2023/01/22 08:56:49;;;;;;;27.30;14.80;;;0.50;99.90;;;-0.75;100.00;98030.31;5028727;28;20067;-39
2023/01/22 08:59:15;;;;;;;26.60;15.15;;;0.40;99.90;;;-0.66;100.00;98046.03;5029236;28;20029;-40
2023/01/22 09:01:41;;;;;;;28.02;14.98;;;0.40;99.90;;;-0.78;100.00;98017.31;5029474;28;20685;-39
2023/01/22 09:04:08;;;;;;;30.75;15.52;;;0.50;99.90;;;-0.92;100.00;97998.91;5028186;28;20406;-37
2023/01/22 09:06:35;;;;;;;24.00;13.60;;;0.50;99.90;;;-0.50;100.00;98051.44;5027757;28;20044;-41
2023/01/22 09:09:01;;;;;;;26.55;14.27;;;0.50;99.90;;;-0.60;100.00;98033.16;5027410;28;20029;-41
2023/01/22 09:11:28;;;;;;;23.27;13.48;;;0.50;99.90;;;-0.93;100.00;97979.06;5031193;28;20394;-41
2023/01/22 09:13:55;;;;;;;24.77;14.25;;;0.60;99.90;;;-0.48;100.00;98060.16;5019704;28;20076;-40
2023/01/22 09:16:23;;;;;;;24.33;13.07;;;0.70;99.90;;;-0.44;100.00;98059.34;5023601;28;20037;-42
2023/01/22 09:18:48;;;;;;;26.55;14.63;;;0.70;99.90;;;-0.42;100.00;98060.25;5028140;28;20047;-40
2023/01/22 09:21:14;;;;;;;30.88;14.82;;;0.70;99.90;;;-0.43;100.00;98053.31;5026033;28;20446;-41
2023/01/22 09:23:40;;;;;;;27.58;14.45;;;0.70;99.90;;;-0.45;100.00;98053.31;5020687;28;20431;-40
2023/01/22 09:26:05;;;;;;;23.88;14.13;;;0.70;99.90;;;-0.29;100.00;98064.78;5026193;28;20140;-40
2023/01/22 09:28:31;;;;;;;22.33;12.82;;;0.80;99.90;;;-0.17;100.00;98060.66;5024055;28;20033;-40
2023/01/22 09:30:57;;;;;;;23.58;13.68;;;0.90;99.90;;;-0.15;100.00;98064.16;5024872;28;20136;-40
2023/01/22 09:33:22;;;;;;;25.75;12.98;;;0.90;99.90;;;-0.31;100.00;98013.78;5030397;28;20040;-41
2023/01/22 09:35:48;;;;;;;23.23;12.80;;;1.00;99.90;;;0.11;100.00;98061.97;5023142;28;20112;-40
2023/01/22 09:38:17;;;;;;;26.88;13.68;;;1.10;99.90;;;-0.01;100.00;98065.25;5024890;28;20032;-39
2023/01/22 09:40:57;;;;;;;26.17;13.77;;;1.10;99.90;;;0.06;100.00;98071.41;5029877;28;20500;-41
2023/01/22 09:44:05;;;;;;;21.45;12.70;;;1.20;99.90;;;0.30;100.00;98066.56;5026685;28;20075;-40
2023/01/22 09:46:40;;;;;;;20.73;12.48;;;1.30;99.90;;;0.32;100.00;98062.28;5029989;28;20046;-41
2023/01/22 09:49:14;;;;;;;28.50;12.90;;;1.50;99.90;;;0.36;100.00;98065.78;5008838;28;20060;-39
2023/01/22 09:51:45;;;;;;;23.67;12.95;;;1.50;99.90;;;0.31;100.00;98052.75;5031322;28;20060;-39
2023/01/22 09:54:14;;;;;;;20.77;11.77;;;1.50;99.90;;;0.56;100.00;98069.53;5010651;28;20036;-40
2023/01/22 09:56:45;;;;;;;20.30;11.90;;;1.60;99.90;;;0.61;100.00;98081.69;5027195;28;20462;-39
2023/01/22 09:59:20;;;;;;;22.17;11.57;;;1.60;99.90;;;0.51;100.00;98050.41;5022861;28;20033;-39
2023/01/22 10:01:54;;;;;;;21.52;11.93;;;1.70;99.90;;;0.50;100.00;98053.88;5026008;28;20508;-39
2023/01/22 10:04:44;;;;;;;21.65;12.05;;;1.70;99.90;;;0.50;100.00;98052.97;5008122;28;20036;-40
2023/01/22 10:07:21;;;;;;;18.73;10.93;;;1.80;99.90;;;0.81;100.00;98092.31;5028782;28;20029;-40
2023/01/22 10:09:57;;;;;;;18.67;10.77;;;1.80;99.90;;;0.84;100.00;98082.00;5009261;28;20055;-40